Antrim, New Hampshire
Current Conditions -  °F | °C
As of 5:52 PM on Tuesday 21 Oct 2014 (Local Time) from KAFN Reporting Station
Haze Haze  
Wind Chill: 10°   Ceiling: 300
Heat Index: 10°   Visibility: 5mi
Dew Point:   Wind: 3mph
Humidity: 93%   Direction: NA
Pressure: 29.96"   Gusts: NA
Location:  43.03°N, 71.95°W
Report Text: KAFN 212152Z AUTO VRB03KT 5SM BR OVC003 10/09 A2996 RMK AO2 SLP154 T01000089
Loading
Personal Weather Stations






























Interactive Weather Map
Tropical Storm Tracking
New forecast layout! Learn more

10-Day Weather Forecast

Advertisements
Track Severe Weather on mobile